KMTC

Selfridge Angb Airport

Mount Clemens, Michigan, USA
TAF KMTC 241700Z 2417/2523 09012KT 9999 OVC015 QNH3003INS BECMG 2502/2503 13010G15KT 8000 -SHRA OVC015 QNH2992INS BECMG 2508/2509 21009KT 8000 BR OVC010 QNH2992INS BECMG 2517/2518 19009KT 9999 NSW SCT010 OVC015 QNH2988INS BECMG 2520/2521 18009KT 9999 FEW015 BKN025 QNH2987INS TEMPO 2521/2523 22010G15KT 8000 -TSRA OVC020CB TX20/2420Z TN15/2510Z
Issued Valid From Valid To
Sep-24 @ 17:00 UTC
(2 hours ago)
Sep-24 @ 17:00 UTC
(2 hours ago)
Sep-25 @ 23:00 UTC
(-1 days ago)
Sep-24 @ 17:00 to Sep-25 @ 02:00
TAF KMTC 241700Z 2417/2523 09012KT 9999 OVC015 QNH3003INS
Wind Visibility Clouds Readings
90° at 12 knots Greater than 6 miles
  • Overcast at 1,500' AGL
Altimeter 30.03" Hg
Pressure 1017 hPa
Becoming Sep-25 @ 02:00 to Sep-25 @ 08:00
BECMG 2502/2503 13010G15KT 8000 -SHRA OVC015 QNH2992INS
Wind Visibility Clouds Conditions Readings
130° at 10 knots
 Gusting to 15 knots
5.0 miles
  • Overcast at 1,500' AGL
  • Light Rain
Altimeter 29.91" Hg
Pressure 1013 hPa
Becoming Sep-25 @ 08:00 to Sep-25 @ 17:00
BECMG 2508/2509 21009KT 8000 BR OVC010 QNH2992INS
Wind Visibility Clouds Conditions Readings
210° at 9 knots 5.0 miles
  • Overcast at 1,000' AGL
  • Mist
Altimeter 29.91" Hg
Pressure 1013 hPa
Becoming Sep-25 @ 17:00 to Sep-25 @ 20:00
BECMG 2517/2518 19009KT 9999 NSW SCT010 OVC015 QNH2988INS
Wind Visibility Clouds Conditions Readings
190° at 9 knots Greater than 6 miles
  • Scattered at 1,000' AGL
  • Overcast at 1,500' AGL
Altimeter 29.88" Hg
Pressure 1012 hPa
Becoming Sep-25 @ 20:00 to Sep-25 @ 23:00
BECMG 2520/2521 18009KT 9999 FEW015 BKN025 QNH2987INS
Wind Visibility Clouds Conditions Readings
180° at 9 knots Greater than 6 miles
  • Few at 1,500' AGL
  • Broken at 2,500' AGL
Altimeter 29.88" Hg
Pressure 1012 hPa
Temporary Sep-25 @ 21:00 to Sep-25 @ 23:00
TEMPO 2521/2523 22010G15KT 8000 -TSRA OVC020CB TX20/2420Z TN15/2510Z
Wind Visibility Clouds Conditions
220° at 10 knots
 Gusting to 15 knots
5.0 miles
  • Overcast at 2,000' AGL
  • Light Thunderstorm
  • Light Rain
TAF KMTC 241700Z 2417/2523 09012KT 9999 OVC015 QNH3003INS BECMG 2502/2503 13010G15KT 8000 -SHRA OVC015 QNH2992INS BECMG 2508/2509 21009KT 8000 BR OVC010 QNH2992INS BECMG 2517/2518 19009KT 9999 NSW SCT010 OVC015 QNH2988INS BECMG 2520/2521 18009KT 9999 FEW015 BKN025 QNH2987INS TEMPO 2521/2523 22010G15KT 8000 -TSRA OVC020CB TX20/2420Z TN15/2510Z
Issued Sep-24 @ 17:00 UTC
(2 hours ago)
Valid From Sep-24 @ 17:00 UTC
(2 hours ago)
Valid To Sep-25 @ 23:00 UTC
(-1 days ago)
Sep-24 @ 17:00 - Sep-25 @ 02:00
Wind Visibility
90° at 12 knots Greater than 6 miles
Clouds
  • Overcast at 1,500' AGL
Becoming Sep-25 @ 02:00 - Sep-25 @ 08:00
Wind Visibility
130° at 10 knots
 Gusting to 15 knots
5.0 miles
Clouds
  • Overcast at 1,500' AGL
Conditions
  • Light Rain
Becoming Sep-25 @ 08:00 - Sep-25 @ 17:00
Wind Visibility
210° at 9 knots 5.0 miles
Clouds
  • Overcast at 1,000' AGL
Conditions
  • Mist
Becoming Sep-25 @ 17:00 - Sep-25 @ 20:00
Wind Visibility
190° at 9 knots Greater than 6 miles
Clouds
  • Scattered at 1,000' AGL
  • Overcast at 1,500' AGL
Conditions
Becoming Sep-25 @ 20:00 - Sep-25 @ 23:00
Wind Visibility
180° at 9 knots Greater than 6 miles
Clouds
  • Few at 1,500' AGL
  • Broken at 2,500' AGL
Conditions
Temporary Sep-25 @ 21:00 - Sep-25 @ 23:00
Wind Visibility
220° at 10 knots
 Gusting to 15 knots
5.0 miles
Clouds
  • Overcast at 2,000' AGL
Conditions
  • Light Thunderstorm
  • Light Rain